Terminal Aerodrome Forecast
Issued by NWS

Home | Current Version | Previous Version | Text Only | Print | Product List | Glossary On
Versions: 1 2 3 4 5 6 7 8 9 10 11 12 13 14 15 16 17 18 19 20 21 22
000
FTUS43 KMQT 020800 AAA
TAFSAW
TAF AMD
KSAW 020858Z 0209/0306 20005KT 2SM BR VCSH OVC005
     FM021400 17003KT P6SM OVC010
     FM022100 10004KT P6SM OVC015
     FM030200 07005KT 3SM -SHRA BR OVC007
      AMD LTD TO CLD VIS AND WIND TIL 021000=

USA.gov is the U.S. government's official web portal to all federal, state and local government web resources and services.